createdAt,value
2022-08-07T00:02:53.783Z,21.33
2022-08-07T00:05:23.585Z,18.70
2022-08-07T00:08:00.141Z,21.35
2022-08-07T00:10:31.375Z,19.05
2022-08-07T00:13:09.611Z,18.10
2022-08-07T00:15:46.802Z,18.25
2022-08-07T00:18:24.565Z,21.30
2022-08-07T00:21:01.531Z,20.17
2022-08-07T00:23:30.747Z,18.23
2022-08-07T00:26:02.865Z,17.45
2022-08-07T00:28:45.711Z,18.63
2022-08-07T00:31:16.660Z,18.27
2022-08-07T00:33:47.411Z,22.20
2022-08-07T00:36:14.935Z,19.60
2022-08-07T00:38:43.837Z,16.17
2022-08-07T00:41:14.818Z,17.00
2022-08-07T00:44:01.340Z,18.85
2022-08-07T00:46:32.946Z,19.00
2022-08-07T00:49:03.003Z,18.63
2022-08-07T00:51:58.546Z,18.88
2022-08-07T00:54:19.628Z,20.50
2022-08-07T00:56:49.709Z,21.75
2022-08-07T00:59:35.224Z,16.25
2022-08-07T01:02:03.508Z,19.83
2022-08-07T01:04:35.509Z,19.38
2022-08-07T01:07:09.972Z,16.15
2022-08-07T01:10:06.253Z,21.30
2022-08-07T01:12:30.139Z,17.02
2022-08-07T01:15:01.648Z,16.80
2022-08-07T01:17:32.061Z,18.95
2022-08-07T01:20:10.178Z,16.92
2022-08-07T01:22:53.966Z,17.23
2022-08-07T01:25:54.026Z,21.85
2022-08-07T01:28:15.604Z,17.55
2022-08-07T01:30:43.918Z,18.65
2022-08-07T01:33:12.194Z,18.42
2022-08-07T01:35:53.807Z,20.60
2022-08-07T01:38:24.700Z,18.08
2022-08-07T01:40:58.714Z,18.73
2022-08-07T01:43:34.578Z,21.80
2022-08-07T01:46:05.743Z,18.20
2022-08-07T01:48:35.773Z,16.75
2022-08-07T01:51:24.559Z,20.50
2022-08-07T01:54:12.659Z,21.45
2022-08-07T01:56:55.294Z,27.80
2022-08-07T01:59:31.187Z,22.42
2022-08-07T02:02:10.379Z,17.90
2022-08-07T02:04:56.322Z,18.50
2022-08-07T02:07:45.075Z,20.23
2022-08-07T02:10:17.886Z,18.15
2022-08-07T02:12:50.029Z,17.75
2022-08-07T02:15:22.969Z,20.02
2022-08-07T02:17:51.995Z,19.15
2022-08-07T02:20:23.693Z,20.98
2022-08-07T02:22:57.601Z,21.60
2022-08-07T02:25:32.211Z,18.83
2022-08-07T02:28:24.282Z,18.00
2022-08-07T02:30:53.102Z,20.00
2022-08-07T02:33:20.797Z,23.80
2022-08-07T02:36:28.753Z,20.27
2022-08-07T02:38:39.658Z,19.08
2022-08-07T02:41:21.581Z,21.40
2022-08-07T02:43:49.457Z,24.88
2022-08-07T02:46:18.568Z,18.95
2022-08-07T02:48:54.733Z,21.67
2022-08-07T02:51:42.095Z,19.20
2022-08-07T02:54:13.925Z,21.42
2022-08-07T02:56:42.321Z,20.40
2022-08-07T02:59:11.811Z,19.67
2022-08-07T03:01:40.814Z,17.58
2022-08-07T03:04:12.492Z,18.45
2022-08-07T03:06:44.846Z,18.52
2022-08-07T03:09:13.886Z,19.92
2022-08-07T03:11:52.407Z,24.65
2022-08-07T03:14:27.784Z,20.42
2022-08-07T03:16:56.516Z,17.15
2022-08-07T03:19:28.980Z,21.98
2022-08-07T03:22:06.093Z,18.88
2022-08-07T03:24:34.348Z,19.80
2022-08-07T03:27:09.087Z,16.15
2022-08-07T03:29:44.652Z,23.85
2022-08-07T03:32:19.311Z,16.58
2022-08-07T03:35:16.801Z,18.35
2022-08-07T03:37:46.392Z,16.70
2022-08-07T03:40:22.861Z,17.65
2022-08-07T03:42:51.817Z,16.15
2022-08-07T03:45:29.971Z,19.40
2022-08-07T03:47:58.985Z,20.42
2022-08-07T03:50:28.996Z,19.23
2022-08-07T03:52:59.325Z,16.98
2022-08-07T03:55:57.632Z,18.33
2022-08-07T03:59:06.670Z,21.77
2022-08-07T04:01:07.360Z,19.33
2022-08-07T04:03:49.824Z,18.20
2022-08-07T04:06:37.158Z,18.15
2022-08-07T04:09:05.743Z,18.70
2022-08-07T04:12:27.091Z,16.73
2022-08-07T04:14:38.762Z,17.83
2022-08-07T04:17:20.175Z,18.17
2022-08-07T04:19:54.518Z,18.10
2022-08-07T04:22:27.418Z,17.58
2022-08-07T04:24:58.645Z,19.23
2022-08-07T04:27:27.902Z,14.18
2022-08-07T04:30:01.127Z,19.88
2022-08-07T04:32:34.364Z,18.23
2022-08-07T04:35:07.227Z,24.10
2022-08-07T04:38:01.221Z,16.38
2022-08-07T04:40:29.566Z,19.63
2022-08-07T04:43:01.712Z,17.38
2022-08-07T04:45:57.173Z,18.00
2022-08-07T04:48:44.971Z,14.10
2022-08-07T04:51:53.960Z,18.08
2022-08-07T04:54:50.697Z,15.50
2022-08-07T04:58:23.767Z,17.00
2022-08-07T05:00:30.082Z,17.05
2022-08-07T05:04:01.144Z,16.90
2022-08-07T05:06:28.290Z,19.35
2022-08-07T05:09:45.645Z,13.93
2022-08-07T05:12:26.963Z,14.40
2022-08-07T05:15:16.091Z,14.95
2022-08-07T05:17:56.659Z,15.52
2022-08-07T05:20:33.806Z,15.27
2022-08-07T05:23:15.472Z,20.98
2022-08-07T05:26:13.091Z,17.60
2022-08-07T05:28:34.967Z,15.05
2022-08-07T05:31:03.653Z,16.20
2022-08-07T05:33:35.649Z,14.43
2022-08-07T05:36:07.166Z,14.23
2022-08-07T05:39:00.201Z,13.73
2022-08-07T05:42:02.710Z,20.00
2022-08-07T05:44:29.203Z,16.00
2022-08-07T05:46:57.935Z,16.20
2022-08-07T05:49:27.326Z,16.27
2022-08-07T05:52:11.678Z,16.30
2022-08-07T05:54:44.346Z,15.13
2022-08-07T05:59:55.809Z,16.45
2022-08-07T06:02:29.157Z,12.18
2022-08-07T06:05:03.615Z,12.85
2022-08-07T06:08:13.834Z,12.15
2022-08-07T06:10:20.887Z,15.20
2022-08-07T06:12:49.703Z,13.85
2022-08-07T06:15:19.960Z,14.20
2022-08-07T06:17:53.567Z,17.30
2022-08-07T06:20:31.742Z,16.58
2022-08-07T06:23:02.255Z,25.02
2022-08-07T06:25:54.630Z,17.48
2022-08-07T06:28:28.161Z,15.73
2022-08-07T06:30:56.497Z,16.70
2022-08-07T06:33:25.592Z,17.88
2022-08-07T06:36:12.314Z,14.43
2022-08-07T06:38:59.433Z,17.42
2022-08-07T06:42:04.592Z,18.35
2022-08-07T06:44:33.942Z,15.13
2022-08-07T06:47:12.571Z,15.90
2022-08-07T06:49:52.186Z,25.75
2022-08-07T06:52:32.000Z,15.10
2022-08-07T06:55:32.083Z,16.80
2022-08-07T06:58:00.566Z,15.98
2022-08-07T07:00:31.289Z,16.80
2022-08-07T07:03:00.908Z,16.50
2022-08-07T07:06:02.440Z,12.93
2022-08-07T07:08:18.519Z,18.83
2022-08-07T07:10:56.499Z,16.17
2022-08-07T07:13:56.131Z,24.15
2022-08-07T07:16:27.590Z,23.73
2022-08-07T07:19:33.887Z,19.35
2022-08-07T07:22:05.490Z,18.63
2022-08-07T07:24:43.238Z,20.40
2022-08-07T07:27:35.525Z,15.93
2022-08-07T07:30:32.575Z,20.27
2022-08-07T07:33:06.502Z,16.10
2022-08-07T07:35:44.025Z,19.25
2022-08-07T07:38:25.951Z,16.13
2022-08-07T07:41:02.244Z,16.33
2022-08-07T07:43:47.753Z,20.88
2022-08-07T07:46:39.873Z,14.48
2022-08-07T07:50:35.564Z,15.48
2022-08-07T07:52:00.380Z,16.98
2022-08-07T07:54:28.338Z,17.58
2022-08-07T07:56:57.578Z,17.63
2022-08-07T07:59:52.530Z,15.40
2022-08-07T08:02:34.204Z,16.45
2022-08-07T08:05:14.486Z,17.88
2022-08-07T08:07:51.621Z,17.30
2022-08-07T08:10:37.962Z,21.45
2022-08-07T08:13:10.525Z,17.35
2022-08-07T08:15:57.622Z,20.88
2022-08-07T08:18:28.713Z,15.68
2022-08-07T08:21:00.353Z,18.88
2022-08-07T08:23:51.921Z,15.70
2022-08-07T08:26:38.190Z,19.02
2022-08-07T08:29:06.497Z,17.10
2022-08-07T08:31:59.087Z,19.80
2022-08-07T08:34:29.051Z,17.50
2022-08-07T08:36:58.438Z,19.10
2022-08-07T08:39:39.667Z,15.45
2022-08-07T08:42:22.506Z,18.73
2022-08-07T08:45:42.059Z,14.20
2022-08-07T08:48:32.534Z,21.40
2022-08-07T08:51:23.311Z,15.50
2022-08-07T08:54:16.116Z,18.00
2022-08-07T08:56:48.841Z,13.60
2022-08-07T08:59:42.086Z,15.83
2022-08-07T09:02:36.554Z,17.27
2022-08-07T09:05:32.081Z,16.75
2022-08-07T09:08:10.386Z,14.82
2022-08-07T09:11:24.977Z,16.25
2022-08-07T09:14:27.476Z,16.48
2022-08-07T09:18:00.351Z,14.63
2022-08-07T09:20:35.974Z,18.08
2022-08-07T09:24:32.257Z,15.18
2022-08-07T09:26:27.851Z,15.38
2022-08-07T09:30:06.114Z,19.38
2022-08-07T09:32:17.102Z,14.88
2022-08-07T09:35:04.579Z,19.40
2022-08-07T09:38:10.560Z,16.00
2022-08-07T09:41:05.981Z,16.05
2022-08-07T09:44:05.404Z,14.45
2022-08-07T09:47:42.689Z,15.98
2022-08-07T09:50:01.015Z,16.85
2022-08-07T09:52:42.465Z,18.50
2022-08-07T09:55:29.240Z,15.45
2022-08-07T09:58:21.413Z,13.45
2022-08-07T10:01:51.064Z,20.08
2022-08-07T10:04:39.639Z,15.23
2022-08-07T10:07:39.887Z,14.10
2022-08-07T10:10:22.877Z,14.45
2022-08-07T10:13:02.210Z,13.10
2022-08-07T10:15:30.464Z,16.43
2022-08-07T10:18:50.735Z,16.95
2022-08-07T10:22:12.137Z,14.02
2022-08-07T10:24:22.276Z,15.18
2022-08-07T10:27:30.258Z,17.52
2022-08-07T10:30:17.866Z,18.38
2022-08-07T10:32:52.451Z,17.20
2022-08-07T10:35:55.325Z,14.48
2022-08-07T10:39:01.119Z,15.85
2022-08-07T10:41:47.454Z,14.43
2022-08-07T10:45:04.242Z,12.18
2022-08-07T10:47:53.906Z,11.00
2022-08-07T10:50:42.469Z,13.38
2022-08-07T10:53:26.464Z,13.55
2022-08-07T10:56:04.880Z,16.42
2022-08-07T10:58:46.120Z,12.77
2022-08-07T11:01:51.405Z,12.55
2022-08-07T11:04:41.009Z,15.77
2022-08-07T11:07:56.296Z,13.48
2022-08-07T11:10:57.924Z,13.13
2022-08-07T11:14:42.344Z,10.60
2022-08-07T11:16:50.738Z,15.27
2022-08-07T11:19:27.251Z,15.57
2022-08-07T11:22:26.671Z,10.43
2022-08-07T11:25:23.882Z,14.43
2022-08-07T11:28:09.244Z,12.40
2022-08-07T11:31:08.904Z,14.43
2022-08-07T11:34:00.062Z,15.15
2022-08-07T11:37:00.360Z,16.85
2022-08-07T11:39:39.866Z,10.63
2022-08-07T11:43:01.813Z,12.20
2022-08-07T11:45:49.933Z,12.48
2022-08-07T11:48:44.161Z,11.80
2022-08-07T11:51:44.716Z,10.95
2022-08-07T11:54:34.234Z,19.17
2022-08-07T11:57:20.710Z,18.13
2022-08-07T12:00:19.237Z,22.60
2022-08-07T12:03:45.719Z,18.52
2022-08-07T12:06:39.808Z,22.33
2022-08-07T12:09:46.988Z,19.30
2022-08-07T12:12:28.482Z,23.88
2022-08-07T12:17:58.443Z,16.15
2022-08-07T12:20:45.107Z,22.88
2022-08-07T12:24:07.690Z,12.68
2022-08-07T12:26:54.045Z,13.13
2022-08-07T12:29:38.016Z,15.75
2022-08-07T12:32:20.892Z,15.23
2022-08-07T12:34:55.864Z,16.33
2022-08-07T12:37:28.268Z,15.73
2022-08-07T12:40:43.684Z,10.65
2022-08-07T12:43:09.663Z,11.80
2022-08-07T12:45:55.336Z,11.07
2022-08-07T12:48:55.101Z,12.75
2022-08-07T12:51:33.359Z,13.63
2022-08-07T12:54:37.265Z,14.60
2022-08-07T12:57:09.542Z,14.85
2022-08-07T12:59:54.235Z,13.10
2022-08-07T13:02:37.354Z,15.00
2022-08-07T13:06:02.554Z,12.07
2022-08-07T13:09:02.727Z,13.07
2022-08-07T13:12:03.332Z,13.10
2022-08-07T13:15:07.374Z,13.38
2022-08-07T13:17:46.573Z,17.73
2022-08-07T13:20:27.839Z,12.95
2022-08-07T13:23:09.829Z,13.10
2022-08-07T13:26:03.193Z,10.63
2022-08-07T13:28:58.468Z,13.50
2022-08-07T13:32:31.030Z,10.77
2022-08-07T13:35:08.541Z,10.73
2022-08-07T13:38:01.125Z,11.55
2022-08-07T13:40:56.100Z,11.07
2022-08-07T13:43:23.266Z,9.98
2022-08-07T13:46:11.182Z,13.60
2022-08-07T13:48:58.603Z,9.70
2022-08-07T13:52:23.152Z,11.63
2022-08-07T13:54:23.797Z,9.60
2022-08-07T13:56:56.290Z,8.70
2022-08-07T13:59:33.177Z,12.80
2022-08-07T14:02:13.346Z,10.13
2022-08-07T14:04:54.829Z,7.78
2022-08-07T14:10:12.218Z,8.57
2022-08-07T14:12:55.687Z,7.57
2022-08-07T14:15:42.731Z,7.70
2022-08-07T14:18:30.665Z,6.68
2022-08-07T14:22:01.395Z,7.87
2022-08-07T14:24:14.823Z,6.45
2022-08-07T14:26:52.614Z,7.38
2022-08-07T14:30:06.412Z,7.25
2022-08-07T14:32:15.234Z,8.30
2022-08-07T14:34:47.129Z,8.88
2022-08-07T14:37:17.743Z,8.25
2022-08-07T14:40:16.664Z,7.43
2022-08-07T14:43:01.383Z,10.07
2022-08-07T14:45:46.617Z,6.75
2022-08-07T14:48:20.366Z,7.45
2022-08-07T14:50:56.468Z,6.28
2022-08-07T14:54:08.661Z,9.10
2022-08-07T14:56:15.976Z,10.13
2022-08-07T14:59:02.177Z,9.27
2022-08-07T15:01:42.353Z,11.10
2022-08-07T15:04:12.872Z,7.53
2022-08-07T15:06:47.833Z,9.52
2022-08-07T15:09:59.609Z,8.70
2022-08-07T15:12:25.866Z,9.13
2022-08-07T15:15:07.862Z,7.45
2022-08-07T15:20:38.590Z,11.73
2022-08-07T15:25:03.114Z,9.02
2022-08-07T15:30:09.462Z,9.15
2022-08-07T15:32:01.318Z,9.77
2022-08-07T15:34:37.828Z,8.88
2022-08-07T15:40:16.033Z,9.27
2022-08-07T15:46:31.105Z,9.10
2022-08-07T15:49:13.229Z,11.82
2022-08-07T15:54:34.731Z,9.55
2022-08-07T15:59:59.522Z,9.32
2022-08-07T16:02:38.642Z,11.65
2022-08-07T16:05:20.621Z,6.75
2022-08-07T16:08:31.754Z,12.65
2022-08-07T16:11:26.251Z,12.23
2022-08-07T16:14:03.946Z,11.60
2022-08-07T16:16:47.946Z,10.45
2022-08-07T16:19:42.838Z,13.23
2022-08-07T16:22:55.150Z,10.30
2022-08-07T16:25:55.505Z,13.35
2022-08-07T16:30:06.926Z,9.02
2022-08-07T16:32:06.199Z,12.38
2022-08-07T16:34:38.868Z,12.77
2022-08-07T16:38:04.884Z,8.30
2022-08-07T16:40:28.140Z,13.18
2022-08-07T16:43:23.230Z,11.63
2022-08-07T16:47:04.832Z,10.00
2022-08-07T16:50:29.278Z,10.35
2022-08-07T16:52:51.274Z,11.35
2022-08-07T16:55:47.968Z,13.55
2022-08-07T16:59:11.294Z,10.43
2022-08-07T17:01:59.722Z,11.90
2022-08-07T17:06:19.514Z,16.35
2022-08-07T17:08:05.122Z,13.93
2022-08-07T17:10:54.926Z,10.77
2022-08-07T17:13:38.741Z,11.90
2022-08-07T17:16:43.603Z,11.15
2022-08-07T17:20:02.990Z,10.88
2022-08-07T17:23:06.088Z,11.75
2022-08-07T17:26:23.999Z,12.55
2022-08-07T17:28:57.821Z,10.52
2022-08-07T17:32:06.295Z,11.50
2022-08-07T17:35:33.070Z,10.73
2022-08-07T17:38:05.066Z,10.32
2022-08-07T17:40:30.393Z,8.75
2022-08-07T17:44:00.923Z,11.52
2022-08-07T17:49:23.860Z,10.65
2022-08-07T17:52:19.640Z,10.13
2022-08-07T17:54:55.550Z,9.55
2022-08-07T17:57:58.333Z,9.98
2022-08-07T18:00:33.282Z,11.30
2022-08-07T18:03:20.889Z,10.85
2022-08-07T18:06:02.772Z,11.43
2022-08-07T18:09:01.474Z,9.93
2022-08-07T18:12:30.491Z,8.43
2022-08-07T18:15:09.809Z,10.05
2022-08-07T18:18:44.994Z,13.90
2022-08-07T18:21:05.946Z,10.93
2022-08-07T18:24:12.323Z,11.95
2022-08-07T18:27:18.291Z,12.13
2022-08-07T18:30:32.604Z,7.75
2022-08-07T18:33:24.746Z,8.18
2022-08-07T18:36:08.013Z,13.40
2022-08-07T18:40:07.245Z,14.57
2022-08-07T18:42:12.823Z,18.52
2022-08-07T18:45:43.112Z,14.50
2022-08-07T18:47:50.480Z,15.52
2022-08-07T18:50:46.444Z,17.23
2022-08-07T18:53:36.634Z,16.10
2022-08-07T18:56:57.858Z,20.08
2022-08-07T18:59:58.993Z,18.05
2022-08-07T19:03:15.914Z,14.57
2022-08-07T19:06:02.331Z,18.40
2022-08-07T19:08:58.976Z,15.48
2022-08-07T19:12:04.042Z,17.15
2022-08-07T19:15:01.457Z,14.75
2022-08-07T19:18:11.635Z,15.30
2022-08-07T19:21:09.288Z,13.70
2022-08-07T19:23:58.715Z,16.83
2022-08-07T19:27:08.857Z,15.57
2022-08-07T19:31:00.217Z,14.27
2022-08-07T19:32:28.736Z,20.00
2022-08-07T19:35:07.129Z,14.88
2022-08-07T19:37:57.151Z,11.98
2022-08-07T19:40:31.307Z,14.02
2022-08-07T19:43:08.765Z,12.88
2022-08-07T19:46:05.750Z,16.05
2022-08-07T19:48:42.901Z,14.02
2022-08-07T19:51:19.537Z,14.32
2022-08-07T19:54:30.887Z,14.27
2022-08-07T19:57:52.006Z,13.80
2022-08-07T19:59:41.564Z,13.73
2022-08-07T20:02:19.040Z,16.75
2022-08-07T20:04:49.457Z,13.32
2022-08-07T20:07:23.721Z,17.98
2022-08-07T20:10:35.535Z,15.70
2022-08-07T20:12:45.691Z,15.85
2022-08-07T20:15:22.370Z,15.95
2022-08-07T20:18:01.535Z,14.93
2022-08-07T20:20:32.766Z,15.73
2022-08-07T20:23:22.833Z,17.35
2022-08-07T20:25:53.194Z,16.15
2022-08-07T20:28:21.028Z,13.38
2022-08-07T20:30:58.827Z,14.70
2022-08-07T20:33:37.757Z,16.30
2022-08-07T20:36:08.103Z,14.15
2022-08-07T20:38:53.615Z,17.08
2022-08-07T20:41:34.081Z,16.98
2022-08-07T20:44:12.558Z,16.07
2022-08-07T20:46:43.731Z,15.50
2022-08-07T20:50:00.291Z,16.05
2022-08-07T20:52:09.382Z,16.42
2022-08-07T20:54:53.348Z,14.38
2022-08-07T20:57:28.096Z,16.60
2022-08-07T21:00:06.310Z,15.68
2022-08-07T21:03:00.904Z,16.25
2022-08-07T21:05:52.425Z,15.23
2022-08-07T21:08:32.296Z,16.75
2022-08-07T21:11:07.445Z,14.50
2022-08-07T21:13:57.140Z,15.93
2022-08-07T21:17:06.800Z,17.67
2022-08-07T21:20:00.972Z,15.45
2022-08-07T21:22:28.234Z,15.95
2022-08-07T21:25:19.750Z,15.32
2022-08-07T21:30:39.401Z,15.85
2022-08-07T21:33:22.149Z,19.17
2022-08-07T21:36:31.225Z,16.95
2022-08-07T21:39:45.378Z,16.70
2022-08-07T21:42:46.672Z,16.40
2022-08-07T21:46:07.847Z,15.75
2022-08-07T21:48:44.025Z,19.67
2022-08-07T21:51:33.768Z,15.90
2022-08-07T21:54:35.078Z,18.05
2022-08-07T21:57:31.097Z,18.40
2022-08-07T22:00:25.159Z,18.92
2022-08-07T22:03:17.540Z,18.58
2022-08-07T22:06:04.001Z,19.45
2022-08-07T22:08:44.711Z,17.20
2022-08-07T22:11:17.714Z,18.38
2022-08-07T22:13:55.310Z,19.05
2022-08-07T22:16:47.831Z,22.17
2022-08-07T22:19:36.911Z,18.13
2022-08-07T22:22:21.268Z,20.45
2022-08-07T22:25:02.978Z,18.90
2022-08-07T22:28:31.585Z,20.58
2022-08-07T22:31:12.396Z,18.02
2022-08-07T22:34:18.172Z,20.48
2022-08-07T22:37:12.509Z,26.55
2022-08-07T22:40:01.068Z,22.00
2022-08-07T22:42:35.236Z,19.85
2022-08-07T22:45:10.955Z,16.52
2022-08-07T22:48:01.062Z,19.60
2022-08-07T22:50:53.433Z,17.60
2022-08-07T22:54:06.641Z,18.40
2022-08-07T22:57:00.979Z,19.13
2022-08-07T22:59:49.837Z,17.30
2022-08-07T23:02:58.559Z,18.40
2022-08-07T23:06:07.613Z,20.27
2022-08-07T23:10:00.897Z,19.77
2022-08-07T23:12:06.481Z,22.05
2022-08-07T23:16:04.484Z,21.77
2022-08-07T23:18:23.153Z,23.80
2022-08-07T23:21:07.606Z,21.35
2022-08-07T23:24:18.552Z,22.17
2022-08-07T23:27:07.866Z,19.40
2022-08-07T23:30:38.709Z,21.13
2022-08-07T23:34:34.806Z,18.38
2022-08-07T23:36:17.035Z,21.90
2022-08-07T23:39:09.369Z,21.20
2022-08-07T23:44:51.450Z,18.33
2022-08-07T23:47:42.275Z,19.88
2022-08-07T23:50:22.569Z,16.15
2022-08-07T23:53:17.043Z,16.38
2022-08-07T23:56:20.805Z,16.88
2022-08-07T23:59:10.652Z,17.45
